sensor_id;sensor_type;location;lat;lon;timestamp;pressure;altitude;pressure_sealevel;temperature;humidity
64544;BME280;50936;51.660;5.616;2023-02-10T00:01:34;103168.78;;;1.71;100.00
64544;BME280;50936;51.660;5.616;2023-02-10T00:04:01;103167.00;;;1.69;100.00
64544;BME280;50936;51.660;5.616;2023-02-10T00:06:29;103171.41;;;1.65;100.00
64544;BME280;50936;51.660;5.616;2023-02-10T00:08:59;103183.81;;;1.62;100.00
64544;BME280;50936;51.660;5.616;2023-02-10T00:11:27;103186.50;;;1.62;100.00
64544;BME280;50936;51.660;5.616;2023-02-10T00:14:16;103182.94;;;1.60;100.00
64544;BME280;50936;51.660;5.616;2023-02-10T00:16:44;103184.69;;;1.54;100.00
64544;BME280;50936;51.660;5.616;2023-02-10T00:19:11;103190.00;;;1.54;100.00
64544;BME280;50936;51.660;5.616;2023-02-10T00:21:38;103196.22;;;1.55;100.00
64544;BME280;50936;51.660;5.616;2023-02-10T00:24:05;103194.44;;;1.54;100.00
64544;BME280;50936;51.660;5.616;2023-02-10T00:26:32;103198.88;;;1.50;100.00
64544;BME280;50936;51.660;5.616;2023-02-10T00:28:59;103194.41;;;1.49;100.00
64544;BME280;50936;51.660;5.616;2023-02-10T00:31:26;103189.06;;;1.49;100.00
64544;BME280;50936;51.660;5.616;2023-02-10T00:33:53;103202.41;;;1.49;100.00
64544;BME280;50936;51.660;5.616;2023-02-10T00:36:20;103198.84;;;1.47;100.00
64544;BME280;50936;51.660;5.616;2023-02-10T00:38:51;103191.72;;;1.46;100.00
64544;BME280;50936;51.660;5.616;2023-02-10T00:41:20;103201.50;;;1.47;100.00
64544;BME280;50936;51.660;5.616;2023-02-10T00:43:50;103189.94;;;1.48;100.00
64544;BME280;50936;51.660;5.616;2023-02-10T00:46:18;103204.16;;;1.47;100.00
64544;BME280;50936;51.660;5.616;2023-02-10T00:48:47;103203.25;;;1.44;100.00
64544;BME280;50936;51.660;5.616;2023-02-10T00:51:15;103205.91;;;1.42;100.00
64544;BME280;50936;51.660;5.616;2023-02-10T00:53:43;103197.00;;;1.40;100.00
64544;BME280;50936;51.660;5.616;2023-02-10T00:56:10;103203.19;;;1.39;100.00
64544;BME280;50936;51.660;5.616;2023-02-10T00:58:37;103199.66;;;1.39;100.00
64544;BME280;50936;51.660;5.616;2023-02-10T01:01:05;103209.41;;;1.35;100.00
64544;BME280;50936;51.660;5.616;2023-02-10T01:03:33;103207.63;;;1.37;100.00
64544;BME280;50936;51.660;5.616;2023-02-10T01:06:00;103204.94;;;1.35;100.00
64544;BME280;50936;51.660;5.616;2023-02-10T01:08:28;103209.41;;;1.37;100.00
64544;BME280;50936;51.660;5.616;2023-02-10T01:11:04;103204.03;;;1.29;100.00
64544;BME280;50936;51.660;5.616;2023-02-10T01:13:34;103210.28;;;1.32;100.00
64544;BME280;50936;51.660;5.616;2023-02-10T01:16:07;103228.03;;;1.30;100.00
64544;BME280;50936;51.660;5.616;2023-02-10T01:18:38;103221.78;;;1.27;100.00
64544;BME280;50936;51.660;5.616;2023-02-10T01:21:07;103230.59;;;1.23;100.00
64544;BME280;50936;51.660;5.616;2023-02-10T01:23:39;103225.28;;;1.20;100.00
64544;BME280;50936;51.660;5.616;2023-02-10T01:26:07;103225.25;;;1.17;100.00
64544;BME280;50936;51.660;5.616;2023-02-10T01:28:42;103228.75;;;1.12;100.00
64544;BME280;50936;51.660;5.616;2023-02-10T01:31:15;103234.06;;;1.09;100.00
64544;BME280;50936;51.660;5.616;2023-02-10T01:33:50;103235.78;;;1.04;100.00
64544;BME280;50936;51.660;5.616;2023-02-10T01:36:22;103237.56;;;1.05;100.00
64544;BME280;50936;51.660;5.616;2023-02-10T01:38:51;103228.69;;;1.03;100.00
64544;BME280;50936;51.660;5.616;2023-02-10T01:41:21;103226.00;;;1.00;100.00
64544;BME280;50936;51.660;5.616;2023-02-10T01:46:34;103233.94;;;0.97;100.00
64544;BME280;50936;51.660;5.616;2023-02-10T01:49:09;103228.63;;;0.94;100.00
64544;BME280;50936;51.660;5.616;2023-02-10T01:52:05;103219.72;;;0.90;100.00
64544;BME280;50936;51.660;5.616;2023-02-10T01:54:56;103217.03;;;0.89;100.00
64544;BME280;50936;51.660;5.616;2023-02-10T01:57:30;103215.25;;;0.89;100.00
64544;BME280;50936;51.660;5.616;2023-02-10T02:00:00;103207.25;;;0.88;100.00
64544;BME280;50936;51.660;5.616;2023-02-10T02:02:37;103209.00;;;0.86;100.00
64544;BME280;50936;51.660;5.616;2023-02-10T02:05:07;103211.66;;;0.83;100.00
64544;BME280;50936;51.660;5.616;2023-02-10T02:07:50;103207.16;;;0.79;100.00
64544;BME280;50936;51.660;5.616;2023-02-10T02:10:17;103212.44;;;0.72;100.00
64544;BME280;50936;51.660;5.616;2023-02-10T02:13:00;103215.91;;;0.64;100.00
64544;BME280;50936;51.660;5.616;2023-02-10T02:15:42;103212.31;;;0.57;100.00
64544;BME280;50936;51.660;5.616;2023-02-10T02:18:31;103214.88;;;0.51;100.00
64544;BME280;50936;51.660;5.616;2023-02-10T02:30:51;103223.66;;;0.42;100.00
64544;BME280;50936;51.660;5.616;2023-02-10T02:36:52;103224.56;;;0.43;100.00
64544;BME280;50936;51.660;5.616;2023-02-10T02:39:26;103237.88;;;0.44;100.00
64544;BME280;50936;51.660;5.616;2023-02-10T02:44:43;103221.00;;;0.44;100.00
64544;BME280;50936;51.660;5.616;2023-02-10T02:53:46;103214.81;;;0.45;100.00
64544;BME280;50936;51.660;5.616;2023-02-10T02:56:38;103215.72;;;0.47;100.00
64544;BME280;50936;51.660;5.616;2023-02-10T02:59:15;103217.50;;;0.45;100.00
64544;BME280;50936;51.660;5.616;2023-02-10T03:01:53;103214.81;;;0.45;100.00
64544;BME280;50936;51.660;5.616;2023-02-10T03:04:31;103217.50;;;0.45;100.00
64544;BME280;50936;51.660;5.616;2023-02-10T03:07:01;103218.31;;;0.42;100.00
64544;BME280;50936;51.660;5.616;2023-02-10T03:09:28;103226.31;;;0.41;100.00
64544;BME280;50936;51.660;5.616;2023-02-10T03:11:56;103231.59;;;0.37;100.00
64544;BME280;50936;51.660;5.616;2023-02-10T03:14:23;103235.09;;;0.36;100.00
64544;BME280;50936;51.660;5.616;2023-02-10T03:16:50;103242.19;;;0.36;100.00
64544;BME280;50936;51.660;5.616;2023-02-10T03:19:18;103243.94;;;0.34;100.00
64544;BME280;50936;51.660;5.616;2023-02-10T03:21:45;103237.75;;;0.33;100.00
64544;BME280;50936;51.660;5.616;2023-02-10T03:24:13;103247.47;;;0.31;100.00
64544;BME280;50936;51.660;5.616;2023-02-10T03:26:41;103252.75;;;0.28;100.00
64544;BME280;50936;51.660;5.616;2023-02-10T03:29:10;103256.25;;;0.27;100.00
64544;BME280;50936;51.660;5.616;2023-02-10T03:31:38;103254.50;;;0.26;100.00
64544;BME280;50936;51.660;5.616;2023-02-10T03:34:06;103243.00;;;0.29;100.00
64544;BME280;50936;51.660;5.616;2023-02-10T03:36:33;103247.47;;;0.31;100.00
64544;BME280;50936;51.660;5.616;2023-02-10T03:39:02;103250.06;;;0.27;100.00
64544;BME280;50936;51.660;5.616;2023-02-10T03:41:29;103243.88;;;0.26;100.00
64544;BME280;50936;51.660;5.616;2023-02-10T03:43:56;103248.31;;;0.29;100.00
64544;BME280;50936;51.660;5.616;2023-02-10T03:46:23;103243.88;;;0.28;100.00
64544;BME280;50936;51.660;5.616;2023-02-10T03:48:50;103249.19;;;0.26;100.00
64544;BME280;50936;51.660;5.616;2023-02-10T03:51:17;103257.13;;;0.25;100.00
64544;BME280;50936;51.660;5.616;2023-02-10T03:53:44;103256.25;;;0.27;100.00
64544;BME280;50936;51.660;5.616;2023-02-10T03:56:11;103250.94;;;0.27;100.00
64544;BME280;50936;51.660;5.616;2023-02-10T03:58:37;103250.94;;;0.24;100.00
64544;BME280;50936;51.660;5.616;2023-02-10T04:01:09;103254.44;;;0.23;100.00
64544;BME280;50936;51.660;5.616;2023-02-10T04:03:39;103254.41;;;0.20;100.00
64544;BME280;50936;51.660;5.616;2023-02-10T04:06:06;103249.09;;;0.20;100.00
64544;BME280;50936;51.660;5.616;2023-02-10T04:08:34;103249.97;;;0.19;100.00
64544;BME280;50936;51.660;5.616;2023-02-10T04:11:03;103259.72;;;0.18;100.00
64544;BME280;50936;51.660;5.616;2023-02-10T04:13:31;103253.47;;;0.13;100.00
64544;BME280;50936;51.660;5.616;2023-02-10T04:16:05;103251.69;;;0.14;100.00
64544;BME280;50936;51.660;5.616;2023-02-10T04:18:37;103249.03;;;0.14;100.00
64544;BME280;50936;51.660;5.616;2023-02-10T04:21:07;103251.63;;;0.11;100.00
64544;BME280;50936;51.660;5.616;2023-02-10T04:23:35;103251.63;;;0.09;100.00
64544;BME280;50936;51.660;5.616;2023-02-10T04:26:03;103248.03;;;0.07;100.00
64544;BME280;50936;51.660;5.616;2023-02-10T04:28:30;103254.28;;;0.08;100.00
64544;BME280;50936;51.660;5.616;2023-02-10T04:30:59;103254.25;;;0.06;100.00
64544;BME280;50936;51.660;5.616;2023-02-10T04:33:28;103252.41;;;0.04;100.00
64544;BME280;50936;51.660;5.616;2023-02-10T04:35:55;103255.09;;;0.04;100.00
64544;BME280;50936;51.660;5.616;2023-02-10T04:38:23;103247.97;;;0.01;100.00
64544;BME280;50936;51.660;5.616;2023-02-10T04:40:50;103248.84;;;-0.02;100.00
64544;BME280;50936;51.660;5.616;2023-02-10T04:43:17;103239.97;;;-0.01;100.00
64544;BME280;50936;51.660;5.616;2023-02-10T04:45:44;103254.16;;;0.02;100.00
64544;BME280;50936;51.660;5.616;2023-02-10T04:48:12;103261.22;;;-0.01;100.00
64544;BME280;50936;51.660;5.616;2023-02-10T04:50:41;103259.41;;;-0.05;100.00
64544;BME280;50936;51.660;5.616;2023-02-10T04:53:08;103250.53;;;-0.07;100.00
64544;BME280;50936;51.660;5.616;2023-02-10T04:55:35;103259.38;;;-0.08;100.00
64544;BME280;50936;51.660;5.616;2023-02-10T04:58:02;103259.34;;;-0.11;100.00
64544;BME280;50936;51.660;5.616;2023-02-10T05:00:29;103264.66;;;-0.11;100.00
64544;BME280;50936;51.660;5.616;2023-02-10T05:02:56;103261.13;;;-0.10;100.00
64544;BME280;50936;51.660;5.616;2023-02-10T05:05:23;103267.31;;;-0.09;100.00
64544;BME280;50936;51.660;5.616;2023-02-10T05:07:52;103268.16;;;-0.12;100.00
64544;BME280;50936;51.660;5.616;2023-02-10T05:10:19;103269.91;;;-0.14;100.00
64544;BME280;50936;51.660;5.616;2023-02-10T05:12:47;103268.13;;;-0.16;100.00
64544;BME280;50936;51.660;5.616;2023-02-10T05:15:15;103278.72;;;-0.18;100.00
64544;BME280;50936;51.660;5.616;2023-02-10T05:17:42;103283.13;;;-0.20;100.00
64544;BME280;50936;51.660;5.616;2023-02-10T05:20:10;103276.88;;;-0.24;100.00
64544;BME280;50936;51.660;5.616;2023-02-10T05:22:38;103277.75;;;-0.23;100.00
64544;BME280;50936;51.660;5.616;2023-02-10T05:25:06;103268.00;;;-0.24;100.00
64544;BME280;50936;51.660;5.616;2023-02-10T05:27:34;103265.38;;;-0.21;100.00
64544;BME280;50936;51.660;5.616;2023-02-10T05:30:04;103273.44;;;-0.15;100.00
64544;BME280;50936;51.660;5.616;2023-02-10T05:32:33;103268.22;;;-0.09;100.00
64544;BME280;50936;51.660;5.616;2023-02-10T05:35:00;103275.31;;;-0.08;100.00
64544;BME280;50936;51.660;5.616;2023-02-10T05:37:27;103281.47;;;-0.10;100.00
64544;BME280;50936;51.660;5.616;2023-02-10T05:39:54;103275.28;;;-0.11;100.00
64544;BME280;50936;51.660;5.616;2023-02-10T05:42:21;103280.59;;;-0.11;100.00
64544;BME280;50936;51.660;5.616;2023-02-10T05:44:47;103285.03;;;-0.10;100.00
64544;BME280;50936;51.660;5.616;2023-02-10T05:47:14;103282.38;;;-0.10;100.00
64544;BME280;50936;51.660;5.616;2023-02-10T05:49:41;103275.34;;;-0.06;100.00
64544;BME280;50936;51.660;5.616;2023-02-10T05:52:08;103274.47;;;-0.05;100.00
64544;BME280;50936;51.660;5.616;2023-02-10T05:54:35;103286.88;;;-0.04;100.00
64544;BME280;50936;51.660;5.616;2023-02-10T05:57:02;103283.31;;;-0.05;100.00
64544;BME280;50936;51.660;5.616;2023-02-10T05:59:29;103281.56;;;-0.04;100.00
64544;BME280;50936;51.660;5.616;2023-02-10T06:01:56;103283.34;;;-0.03;100.00
64544;BME280;50936;51.660;5.616;2023-02-10T06:04:23;103287.81;;;0.01;100.00
64544;BME280;50936;51.660;5.616;2023-02-10T06:06:51;103286.97;;;0.02;100.00
64544;BME280;50936;51.660;5.616;2023-02-10T06:09:18;103286.97;;;0.04;100.00
64544;BME280;50936;51.660;5.616;2023-02-10T06:11:45;103289.69;;;0.07;100.00
64544;BME280;50936;51.660;5.616;2023-02-10T06:14:12;103292.38;;;0.10;100.00
64544;BME280;50936;51.660;5.616;2023-02-10T06:16:39;103288.88;;;0.14;100.00
64544;BME280;50936;51.660;5.616;2023-02-10T06:19:05;103292.44;;;0.16;100.00
64544;BME280;50936;51.660;5.616;2023-02-10T06:21:32;103291.63;;;0.20;100.00
64544;BME280;50936;51.660;5.616;2023-02-10T06:23:59;103279.28;;;0.25;100.00
64544;BME280;50936;51.660;5.616;2023-02-10T06:26:26;103273.13;;;0.28;100.00
64544;BME280;50936;51.660;5.616;2023-02-10T06:28:55;103270.50;;;0.32;100.00
64544;BME280;50936;51.660;5.616;2023-02-10T06:31:22;103272.31;;;0.36;100.00
64544;BME280;50936;51.660;5.616;2023-02-10T06:33:52;103276.81;;;0.39;100.00
64544;BME280;50936;51.660;5.616;2023-02-10T06:36:19;103274.19;;;0.44;100.00
64544;BME280;50936;51.660;5.616;2023-02-10T06:38:46;103277.78;;;0.49;100.00
64544;BME280;50936;51.660;5.616;2023-02-10T06:41:14;103279.59;;;0.53;100.00
64544;BME280;50936;51.660;5.616;2023-02-10T06:43:42;103284.09;;;0.58;100.00
64544;BME280;50936;51.660;5.616;2023-02-10T06:46:09;103285.03;;;0.62;100.00
64544;BME280;50936;51.660;5.616;2023-02-10T06:48:37;103285.06;;;0.65;100.00
64544;BME280;50936;51.660;5.616;2023-02-10T06:51:04;103280.66;;;0.67;100.00
64544;BME280;50936;51.660;5.616;2023-02-10T06:53:31;103282.47;;;0.68;100.00
64544;BME280;50936;51.660;5.616;2023-02-10T06:55:58;103281.56;;;0.69;100.00
64544;BME280;50936;51.660;5.616;2023-02-10T06:58:25;103291.34;;;0.70;100.00
64544;BME280;50936;51.660;5.616;2023-02-10T07:00:52;103295.78;;;0.73;100.00
64544;BME280;50936;51.660;5.616;2023-02-10T07:03:18;103297.59;;;0.75;100.00
64544;BME280;50936;51.660;5.616;2023-02-10T07:05:45;103301.13;;;0.74;100.00
64544;BME280;50936;51.660;5.616;2023-02-10T07:08:13;103308.19;;;0.72;100.00
64544;BME280;50936;51.660;5.616;2023-02-10T07:10:41;103310.00;;;0.73;100.00
64544;BME280;50936;51.660;5.616;2023-02-10T07:13:08;103313.56;;;0.75;100.00
64544;BME280;50936;51.660;5.616;2023-02-10T07:15:35;103310.00;;;0.76;100.00
64544;BME280;50936;51.660;5.616;2023-02-10T07:18:02;103319.81;;;0.79;100.00
64544;BME280;50936;51.660;5.616;2023-02-10T07:20:29;103324.25;;;0.82;100.00
64544;BME280;50936;51.660;5.616;2023-02-10T07:22:56;103319.00;;;0.85;100.00
64544;BME280;50936;51.660;5.616;2023-02-10T07:25:22;103320.78;;;0.87;100.00
64544;BME280;50936;51.660;5.616;2023-02-10T07:27:49;103326.16;;;0.92;100.00
64544;BME280;50936;51.660;5.616;2023-02-10T07:30:17;103323.50;;;0.95;100.00
64544;BME280;50936;51.660;5.616;2023-02-10T07:32:44;103315.56;;;0.98;100.00
64544;BME280;50936;51.660;5.616;2023-02-10T07:35:11;103313.81;;;1.00;100.00
64544;BME280;50936;51.660;5.616;2023-02-10T07:37:39;103319.19;;;1.03;100.00
64544;BME280;50936;51.660;5.616;2023-02-10T07:40:07;103322.78;;;1.08;100.00
64544;BME280;50936;51.660;5.616;2023-02-10T07:42:35;103317.47;;;1.11;100.00
64544;BME280;50936;51.660;5.616;2023-02-10T07:45:23;103319.31;;;1.15;100.00
64544;BME280;50936;51.660;5.616;2023-02-10T07:47:50;103320.22;;;1.21;100.00
64544;BME280;50936;51.660;5.616;2023-02-10T07:50:17;103322.03;;;1.26;100.00
64544;BME280;50936;51.660;5.616;2023-02-10T07:52:43;103315.88;;;1.29;100.00
64544;BME280;50936;51.660;5.616;2023-02-10T07:55:10;103321.22;;;1.35;100.00
64544;BME280;50936;51.660;5.616;2023-02-10T07:57:37;103326.63;;;1.41;100.00
64544;BME280;50936;51.660;5.616;2023-02-10T08:00:09;103329.31;;;1.44;100.00
64544;BME280;50936;51.660;5.616;2023-02-10T08:02:38;103335.53;;;1.48;100.00
64544;BME280;50936;51.660;5.616;2023-02-10T08:05:05;103341.81;;;1.53;100.00
64544;BME280;50936;51.660;5.616;2023-02-10T08:07:33;103345.41;;;1.58;100.00
64544;BME280;50936;51.660;5.616;2023-02-10T08:10:00;103349.88;;;1.62;100.00
64544;BME280;50936;51.660;5.616;2023-02-10T08:12:26;103351.66;;;1.65;100.00
64544;BME280;50936;51.660;5.616;2023-02-10T08:14:53;103357.03;;;1.68;100.00
64544;BME280;50936;51.660;5.616;2023-02-10T08:17:21;103349.97;;;1.73;100.00
64544;BME280;50936;51.660;5.616;2023-02-10T08:19:48;103349.06;;;1.76;100.00
64544;BME280;50936;51.660;5.616;2023-02-10T08:22:14;103360.66;;;1.79;100.00
64544;BME280;50936;51.660;5.616;2023-02-10T08:24:41;103357.16;;;1.83;100.00
64544;BME280;50936;51.660;5.616;2023-02-10T08:27:08;103360.75;;;1.87;100.00
64544;BME280;50936;51.660;5.616;2023-02-10T08:29:37;103360.75;;;1.93;100.00
64544;BME280;50936;51.660;5.616;2023-02-10T08:32:04;103373.22;;;1.97;100.00
64544;BME280;50936;51.660;5.616;2023-02-10T08:34:32;103379.47;;;2.01;100.00
64544;BME280;50936;51.660;5.616;2023-02-10T08:37:00;103378.59;;;2.02;100.00
64544;BME280;50936;51.660;5.616;2023-02-10T08:39:28;103379.50;;;2.04;100.00
64544;BME280;50936;51.660;5.616;2023-02-10T08:41:55;103380.41;;;2.06;100.00
64544;BME280;50936;51.660;5.616;2023-02-10T08:44:22;103381.31;;;2.09;100.00
64544;BME280;50936;51.660;5.616;2023-02-10T08:46:50;103376.91;;;2.13;100.00
64544;BME280;50936;51.660;5.616;2023-02-10T08:49:17;103352.00;;;2.14;100.00
64544;BME280;50936;51.660;5.616;2023-02-10T08:51:44;103364.50;;;2.18;100.00
64544;BME280;50936;51.660;5.616;2023-02-10T08:54:11;103358.31;;;2.24;100.00
64544;BME280;50936;51.660;5.616;2023-02-10T08:56:38;103353.88;;;2.30;100.00
64544;BME280;50936;51.660;5.616;2023-02-10T08:59:05;103366.34;;;2.36;100.00
64544;BME280;50936;51.660;5.616;2023-02-10T09:01:32;103363.69;;;2.39;100.00
64544;BME280;50936;51.660;5.616;2023-02-10T09:03:59;103365.50;;;2.42;100.00
64544;BME280;50936;51.660;5.616;2023-02-10T09:06:35;103360.16;;;2.43;100.00
64544;BME280;50936;51.660;5.616;2023-02-10T09:09:17;103353.97;;;2.46;100.00
64544;BME280;50936;51.660;5.616;2023-02-10T09:11:49;103358.44;;;2.52;100.00
64544;BME280;50936;51.660;5.616;2023-02-10T09:14:15;103355.75;;;2.56;100.00
64544;BME280;50936;51.660;5.616;2023-02-10T09:16:43;103360.25;;;2.60;100.00
64544;BME280;50936;51.660;5.616;2023-02-10T09:19:10;103355.81;;;2.65;100.00
64544;BME280;50936;51.660;5.616;2023-02-10T09:21:37;103360.28;;;2.73;100.00
64544;BME280;50936;51.660;5.616;2023-02-10T09:24:13;103361.22;;;2.81;100.00
64544;BME280;50936;51.660;5.616;2023-02-10T09:26:41;103363.00;;;2.79;100.00
64544;BME280;50936;51.660;5.616;2023-02-10T09:29:08;103370.09;;;2.80;100.00
64544;BME280;50936;51.660;5.616;2023-02-10T09:31:36;103368.34;;;2.86;100.00
64544;BME280;50936;51.660;5.616;2023-02-10T09:34:03;103382.63;;;2.93;100.00
64544;BME280;50936;51.660;5.616;2023-02-10T09:36:30;103371.03;;;2.96;100.00
64544;BME280;50936;51.660;5.616;2023-02-10T09:38:58;103382.63;;;2.99;100.00
64544;BME280;50936;51.660;5.616;2023-02-10T09:44:17;103378.22;;;3.18;100.00
64544;BME280;50936;51.660;5.616;2023-02-10T09:56:00;103369.34;;;3.64;100.00
64544;BME280;50936;51.660;5.616;2023-02-10T09:58:43;103364.91;;;3.69;100.00
64544;BME280;50936;51.660;5.616;2023-02-10T10:01:26;103372.03;;;3.76;100.00
64544;BME280;50936;51.660;5.616;2023-02-10T10:04:17;103365.78;;;3.87;100.00
64544;BME280;50936;51.660;5.616;2023-02-10T10:06:50;103375.59;;;3.91;100.00
64544;BME280;50936;51.660;5.616;2023-02-10T10:09:46;103380.03;;;3.93;100.00
64544;BME280;50936;51.660;5.616;2023-02-10T10:12:23;103386.28;;;3.88;100.00
64544;BME280;50936;51.660;5.616;2023-02-10T10:14:50;103387.16;;;3.93;100.00
64544;BME280;50936;51.660;5.616;2023-02-10T10:31:37;103376.94;;;5.12;100.00
64544;BME280;50936;51.660;5.616;2023-02-10T10:34:16;103380.47;;;5.17;100.00
64544;BME280;50936;51.660;5.616;2023-02-10T10:36:45;103378.66;;;5.22;100.00
64544;BME280;50936;51.660;5.616;2023-02-10T10:39:35;103379.44;;;5.38;100.00
64544;BME280;50936;51.660;5.616;2023-02-10T10:42:28;103381.94;;;5.61;100.00
64544;BME280;50936;51.660;5.616;2023-02-10T10:45:13;103378.25;;;5.74;100.00
64544;BME280;50936;51.660;5.616;2023-02-10T10:48:01;103370.81;;;6.10;100.00
64544;BME280;50936;51.660;5.616;2023-02-10T10:50:34;103359.91;;;6.23;100.00
64544;BME280;50936;51.660;5.616;2023-02-10T10:53:14;103361.78;;;6.18;100.00
64544;BME280;50936;51.660;5.616;2023-02-10T10:55:47;103352.81;;;6.19;100.00
64544;BME280;50936;51.660;5.616;2023-02-10T10:58:31;103353.47;;;6.39;100.00
64544;BME280;50936;51.660;5.616;2023-02-10T11:01:04;103345.22;;;6.58;100.00
64544;BME280;50936;51.660;5.616;2023-02-10T11:03:32;103345.09;;;6.67;100.00
64544;BME280;50936;51.660;5.616;2023-02-10T11:06:04;103344.16;;;6.68;100.00
64544;BME280;50936;51.660;5.616;2023-02-10T11:11:13;103341.59;;;6.62;100.00
64544;BME280;50936;51.660;5.616;2023-02-10T11:14:01;103341.63;;;6.55;100.00
64544;BME280;50936;51.660;5.616;2023-02-10T11:16:49;103343.44;;;6.57;100.00
64544;BME280;50936;51.660;5.616;2023-02-10T11:19:23;103339.75;;;6.64;100.00
64544;BME280;50936;51.660;5.616;2023-02-10T11:21:57;103337.81;;;6.75;100.00
64544;BME280;50936;51.660;5.616;2023-02-10T11:24:30;103338.41;;;6.97;100.00
64544;BME280;50936;51.660;5.616;2023-02-10T11:27:04;103336.28;;;7.19;100.00
64544;BME280;50936;51.660;5.616;2023-02-10T11:29:39;103330.69;;;7.35;100.00
64544;BME280;50936;51.660;5.616;2023-02-10T11:32:18;103331.28;;;7.52;100.00
64544;BME280;50936;51.660;5.616;2023-02-10T11:34:59;103330.09;;;7.67;100.00
64544;BME280;50936;51.660;5.616;2023-02-10T11:37:37;103339.00;;;7.70;100.00
64544;BME280;50936;51.660;5.616;2023-02-10T11:40:21;103328.94;;;7.82;100.00
64544;BME280;50936;51.660;5.616;2023-02-10T11:42:52;103326.19;;;7.86;100.00
64544;BME280;50936;51.660;5.616;2023-02-10T11:45:27;103321.50;;;7.96;100.00
64544;BME280;50936;51.660;5.616;2023-02-10T11:48:24;103320.19;;;8.19;100.00
64544;BME280;50936;51.660;5.616;2023-02-10T11:51:05;103317.03;;;8.40;100.00
64544;BME280;50936;51.660;5.616;2023-02-10T11:53:41;103309.75;;;8.48;99.07
64544;BME280;50936;51.660;5.616;2023-02-10T11:59:07;103296.88;;;8.63;98.84
64544;BME280;50936;51.660;5.616;2023-02-10T12:01:54;103293.50;;;8.52;97.09
64544;BME280;50936;51.660;5.616;2023-02-10T12:04:38;103295.28;;;8.53;98.33
64544;BME280;50936;51.660;5.616;2023-02-10T12:10:50;103295.38;;;8.89;94.70
64544;BME280;50936;51.660;5.616;2023-02-10T12:16:28;103294.00;;;9.08;92.08
64544;BME280;50936;51.660;5.616;2023-02-10T12:19:43;103295.63;;;9.15;90.80
64544;BME280;50936;51.660;5.616;2023-02-10T12:28:06;103295.44;;;8.85;88.72
64544;BME280;50936;51.660;5.616;2023-02-10T12:39:36;103295.03;;;8.65;93.92
64544;BME280;50936;51.660;5.616;2023-02-10T12:45:58;103285.63;;;8.41;98.31
64544;BME280;50936;51.660;5.616;2023-02-10T12:54:59;103281.63;;;8.60;98.99
64544;BME280;50936;51.660;5.616;2023-02-10T12:57:39;103276.13;;;8.66;99.21
64544;BME280;50936;51.660;5.616;2023-02-10T13:00:15;103276.59;;;8.85;100.00
64544;BME280;50936;51.660;5.616;2023-02-10T13:05:47;103268.59;;;9.18;98.70
64544;BME280;50936;51.660;5.616;2023-02-10T13:08:30;103271.44;;;9.48;97.18
64544;BME280;50936;51.660;5.616;2023-02-10T13:11:17;103261.94;;;9.68;96.45
64544;BME280;50936;51.660;5.616;2023-02-10T13:13:54;103244.06;;;9.63;96.95
64544;BME280;50936;51.660;5.616;2023-02-10T13:16:29;103243.38;;;9.55;96.54
64544;BME280;50936;51.660;5.616;2023-02-10T13:19:05;103247.78;;;9.58;97.59
64544;BME280;50936;51.660;5.616;2023-02-10T13:25:15;103230.56;;;9.31;96.52
64544;BME280;50936;51.660;5.616;2023-02-10T13:27:51;103230.50;;;8.96;99.48
64544;BME280;50936;51.660;5.616;2023-02-10T13:31:08;103233.41;;;8.89;100.00
64544;BME280;50936;51.660;5.616;2023-02-10T13:34:27;103237.06;;;8.84;100.00
64544;BME280;50936;51.660;5.616;2023-02-10T13:37:19;103236.13;;;8.87;100.00
64544;BME280;50936;51.660;5.616;2023-02-10T13:40:14;103231.31;;;9.00;100.00
64544;BME280;50936;51.660;5.616;2023-02-10T13:42:54;103241.72;;;9.15;100.00
64544;BME280;50936;51.660;5.616;2023-02-10T13:45:27;103231.84;;;9.16;100.00
64544;BME280;50936;51.660;5.616;2023-02-10T13:47:59;103236.41;;;9.12;100.00
64544;BME280;50936;51.660;5.616;2023-02-10T13:50:32;103227.00;;;9.29;100.00
64544;BME280;50936;51.660;5.616;2023-02-10T13:53:38;103218.47;;;9.46;100.00
64544;BME280;50936;51.660;5.616;2023-02-10T14:04:46;103202.16;;;9.49;98.82
64544;BME280;50936;51.660;5.616;2023-02-10T14:13:04;103184.53;;;9.70;97.78
64544;BME280;50936;51.660;5.616;2023-02-10T14:16:04;103179.38;;;9.60;97.09
64544;BME280;50936;51.660;5.616;2023-02-10T14:18:36;103186.88;;;9.51;95.85
64544;BME280;50936;51.660;5.616;2023-02-10T14:21:06;103176.44;;;9.37;96.87
64544;BME280;50936;51.660;5.616;2023-02-10T14:23:43;103177.44;;;9.33;96.28
64544;BME280;50936;51.660;5.616;2023-02-10T14:26:23;103176.00;;;9.19;96.65
64544;BME280;50936;51.660;5.616;2023-02-10T14:29:02;103181.75;;;9.05;98.21
64544;BME280;50936;51.660;5.616;2023-02-10T14:31:33;103181.09;;;9.30;98.63
64544;BME280;50936;51.660;5.616;2023-02-10T14:34:26;103176.38;;;9.40;97.62
64544;BME280;50936;51.660;5.616;2023-02-10T14:37:19;103177.50;;;9.31;98.48
64544;BME280;50936;51.660;5.616;2023-02-10T14:39:54;103182.50;;;9.12;97.90
64544;BME280;50936;51.660;5.616;2023-02-10T14:42:28;103184.81;;;8.90;97.92
64544;BME280;50936;51.660;5.616;2023-02-10T14:44:59;103186.75;;;8.86;98.42
64544;BME280;50936;51.660;5.616;2023-02-10T14:47:33;103180.44;;;8.86;99.00
64544;BME280;50936;51.660;5.616;2023-02-10T14:50:05;103202.97;;;8.83;99.05
64544;BME280;50936;51.660;5.616;2023-02-10T14:52:35;103199.44;;;8.81;99.35
64544;BME280;50936;51.660;5.616;2023-02-10T14:55:29;103193.94;;;8.84;98.81
64544;BME280;50936;51.660;5.616;2023-02-10T14:58:09;103194.03;;;8.81;98.66
64544;BME280;50936;51.660;5.616;2023-02-10T15:00:40;103191.72;;;8.64;97.33
64544;BME280;50936;51.660;5.616;2023-02-10T15:03:18;103193.47;;;8.28;99.48
64544;BME280;50936;51.660;5.616;2023-02-10T15:05:48;103198.25;;;8.14;100.00